Time;durP1;ratioP1;P1;durP2;ratioP2;P2;SDS_P1;SDS_P2;PMS_P1;PMS_P2;Temp;Humidity;BMP_temperature;BMP_pressure;BME280_temperature;BME280_humidity;BME280_pressure;Samples;Min_cycle;Max_cycle;Signal;HPM_P1;HPM_P2
2022/11/14 00:02:26;;;;;;;34.63;17.08;;;8.20;99.90;;;;;;5072779;28;20040;-86
2022/11/14 00:04:52;;;;;;;29.48;15.40;;;8.20;99.90;;;;;;5073253;28;20389;-87
2022/11/14 00:07:17;;;;;;;30.33;15.90;;;8.20;99.90;;;;;;5091706;28;20515;-87
2022/11/14 00:09:43;;;;;;;31.35;16.48;;;8.20;99.90;;;;;;5074580;28;20040;-87
2022/11/14 00:12:10;;;;;;;35.50;16.45;;;8.20;99.90;;;;;;5091442;28;20401;-86
2022/11/14 00:14:36;;;;;;;32.22;15.82;;;8.20;99.90;;;;;;5091583;28;20047;-87
2022/11/14 00:17:02;;;;;;;32.53;16.25;;;8.20;99.90;;;;;;5091373;28;20044;-87
2022/11/14 00:19:28;;;;;;;31.88;16.95;;;8.20;99.90;;;;;;5091362;28;20039;-87
2022/11/14 00:21:53;;;;;;;33.00;16.85;;;8.20;99.90;;;;;;5091716;28;20527;-86
2022/11/14 00:24:19;;;;;;;36.35;17.73;;;8.30;99.90;;;;;;5090840;28;20516;-86
2022/11/14 00:26:46;;;;;;;32.13;16.58;;;8.30;99.90;;;;;;5091631;28;20504;-87
2022/11/14 00:29:12;;;;;;;34.40;18.45;;;8.30;99.90;;;;;;5091134;28;20092;-87
2022/11/14 00:31:38;;;;;;;37.83;18.80;;;8.30;99.90;;;;;;5090862;28;20517;-86
2022/11/14 00:34:04;;;;;;;32.28;17.48;;;8.30;99.90;;;;;;5090942;28;20040;-87
2022/11/14 00:36:30;;;;;;;38.08;19.65;;;8.30;99.90;;;;;;5091347;28;20102;-86
2022/11/14 00:38:55;;;;;;;32.53;16.98;;;8.30;99.90;;;;;;5091060;28;20453;-86
2022/11/14 00:41:21;;;;;;;37.85;18.67;;;8.30;99.90;;;;;;5073754;28;20124;-87
2022/11/14 00:43:47;;;;;;;35.60;19.13;;;8.30;99.90;;;;;;5090303;28;20386;-87
2022/11/14 00:46:12;;;;;;;32.08;18.25;;;8.30;99.90;;;;;;5073443;28;20039;-87
2022/11/14 00:48:38;;;;;;;33.80;18.33;;;8.30;99.90;;;;;;5090900;28;20040;-87
2022/11/14 00:51:03;;;;;;;38.30;19.27;;;8.30;99.90;;;;;;5090810;28;20032;-87
2022/11/14 00:53:29;;;;;;;39.65;20.23;;;8.30;99.90;;;;;;5073420;28;20028;-87
2022/11/14 00:55:55;;;;;;;38.70;21.35;;;8.30;99.90;;;;;;5091001;28;20375;-87
2022/11/14 00:58:21;;;;;;;36.55;20.55;;;8.20;99.90;;;;;;5090761;28;20078;-86
2022/11/14 01:00:46;;;;;;;40.92;21.35;;;8.30;99.90;;;;;;5090500;28;20044;-86
2022/11/14 01:03:12;;;;;;;38.88;19.80;;;8.30;99.90;;;;;;5090271;28;20040;-86
2022/11/14 01:05:46;;;;;;;39.13;20.80;;;8.20;99.90;;;;;;5073507;28;20044;-86
2022/11/14 01:08:14;;;;;;;39.88;20.95;;;8.20;99.90;;;;;;5073778;28;20043;-87
2022/11/14 01:10:44;;;;;;;37.95;20.08;;;8.20;99.90;;;;;;5090585;28;20075;-86
2022/11/14 01:13:10;;;;;;;41.42;21.17;;;8.20;99.90;;;;;;5073101;28;20412;-87
2022/11/14 01:15:41;;;;;;;37.55;20.42;;;8.20;99.90;;;;;;5073455;28;20040;-86
2022/11/14 01:18:07;;;;;;;39.13;21.83;;;8.20;99.90;;;;;;5073583;28;20524;-86
2022/11/14 01:20:32;;;;;;;43.50;22.35;;;8.10;99.90;;;;;;5090492;28;20044;-86
2022/11/14 01:22:58;;;;;;;40.22;21.42;;;8.10;99.90;;;;;;5090106;28;20040;-86
2022/11/14 01:25:23;;;;;;;38.05;20.40;;;8.10;99.90;;;;;;5090092;28;20040;-86
2022/11/14 01:27:49;;;;;;;37.42;19.63;;;8.00;99.90;;;;;;5073285;28;20032;-86
2022/11/14 01:30:15;;;;;;;39.70;20.85;;;8.00;99.90;;;;;;5073449;28;20057;-86
2022/11/14 01:32:41;;;;;;;42.00;23.13;;;8.00;99.90;;;;;;5090302;28;20105;-86
2022/11/14 01:35:06;;;;;;;39.03;21.70;;;7.90;99.90;;;;;;5090460;28;20493;-86
2022/11/14 01:37:32;;;;;;;35.45;19.92;;;8.00;99.90;;;;;;5090164;28;20040;-86
2022/11/14 01:39:58;;;;;;;38.15;21.95;;;8.00;99.90;;;;;;5089544;28;20040;-86
2022/11/14 01:42:23;;;;;;;40.88;22.30;;;7.90;99.90;;;;;;5089824;28;20050;-86
2022/11/14 01:44:54;;;;;;;40.40;22.25;;;7.90;99.90;;;;;;5090077;28;20048;-87
2022/11/14 01:47:24;;;;;;;40.58;22.55;;;7.90;99.90;;;;;;5090288;28;20071;-86
2022/11/14 01:49:54;;;;;;;39.97;22.40;;;7.90;99.90;;;;;;5090167;28;20043;-87
2022/11/14 01:52:33;;;;;;;41.03;22.08;;;7.90;99.90;;;;;;5089922;28;20040;-87
2022/11/14 01:55:00;;;;;;;41.78;23.00;;;7.90;99.90;;;;;;5089947;28;20131;-86
2022/11/14 01:57:34;;;;;;;42.25;23.67;;;7.90;99.90;;;;;;5073128;28;20127;-86
2022/11/14 02:00:04;;;;;;;45.30;23.13;;;7.90;99.90;;;;;;5090343;28;20101;-86
2022/11/14 02:02:30;;;;;;;46.70;23.35;;;7.80;99.90;;;;;;5072758;28;20055;-86
2022/11/14 02:05:01;;;;;;;40.70;22.52;;;7.80;99.90;;;;;;5089872;28;20040;-86
2022/11/14 02:07:31;;;;;;;41.92;22.42;;;7.80;99.90;;;;;;5089988;28;20036;-86
2022/11/14 02:10:00;;;;;;;43.70;22.60;;;7.80;99.90;;;;;;5073057;28;20054;-86
2022/11/14 02:12:26;;;;;;;40.13;21.52;;;7.80;99.90;;;;;;5089820;28;20391;-86
2022/11/14 02:14:56;;;;;;;42.13;24.08;;;7.80;99.90;;;;;;5073010;28;20033;-86
2022/11/14 02:17:23;;;;;;;41.65;22.88;;;7.80;99.90;;;;;;5089873;28;20109;-86
2022/11/14 02:20:02;;;;;;;42.22;21.60;;;7.80;99.90;;;;;;5073199;28;20105;-86
2022/11/14 02:22:27;;;;;;;42.92;24.02;;;7.80;99.90;;;;;;5089489;28;20036;-88
2022/11/14 02:24:53;;;;;;;42.50;22.35;;;7.80;99.90;;;;;;5089823;28;20123;-88
2022/11/14 02:27:19;;;;;;;38.92;21.35;;;7.80;99.90;;;;;;5090126;28;20032;-88
2022/11/14 02:29:45;;;;;;;40.25;21.75;;;7.80;99.90;;;;;;5089941;28;20560;-88
2022/11/14 02:32:10;;;;;;;42.03;21.77;;;7.80;99.90;;;;;;5089681;28;20043;-89
2022/11/14 02:34:36;;;;;;;41.65;23.67;;;7.80;99.90;;;;;;5089577;28;20086;-88
2022/11/14 02:37:01;;;;;;;45.47;23.95;;;7.80;99.90;;;;;;5089866;28;20043;-89
2022/11/14 02:39:27;;;;;;;45.53;22.27;;;7.80;99.90;;;;;;5072687;28;20574;-89
2022/11/14 02:41:53;;;;;;;43.33;22.67;;;7.80;99.90;;;;;;5089583;28;20039;-89
2022/11/14 02:44:18;;;;;;;44.85;23.60;;;7.80;99.90;;;;;;5089520;28;20040;-88
2022/11/14 02:46:44;;;;;;;40.90;21.85;;;7.80;99.90;;;;;;5089608;28;20028;-88
2022/11/14 02:49:10;;;;;;;48.38;25.13;;;7.80;99.90;;;;;;5089466;28;20043;-88
2022/11/14 02:51:35;;;;;;;42.03;22.20;;;7.80;99.90;;;;;;5089646;28;20047;-89
2022/11/14 02:54:01;;;;;;;42.88;23.38;;;7.80;99.90;;;;;;5092134;28;20032;-89
2022/11/14 02:56:26;;;;;;;46.03;23.27;;;7.70;99.90;;;;;;5093041;28;20040;-88
2022/11/14 02:58:52;;;;;;;40.13;22.88;;;7.80;99.90;;;;;;5076323;28;20039;-88
2022/11/14 03:01:18;;;;;;;42.00;21.80;;;7.70;99.90;;;;;;5075956;28;20127;-88
2022/11/14 03:03:43;;;;;;;44.55;22.40;;;7.80;99.90;;;;;;5075559;28;20044;-88
2022/11/14 03:06:09;;;;;;;45.20;23.00;;;7.80;99.90;;;;;;5075847;28;20036;-88
2022/11/14 03:08:34;;;;;;;43.40;23.52;;;7.80;99.90;;;;;;5092899;28;20039;-88
2022/11/14 03:11:07;;;;;;;40.55;23.00;;;7.70;99.90;;;;;;5075997;28;20043;-89
2022/11/14 03:13:33;;;;;;;46.13;23.17;;;7.80;99.90;;;;;;5075383;28;20044;-88
2022/11/14 03:16:10;;;;;;;43.88;23.13;;;7.70;99.90;;;;;;5075769;28;20043;-88
2022/11/14 03:18:36;;;;;;;46.58;25.13;;;7.70;99.90;;;;;;5092910;28;20043;-88
2022/11/14 03:21:10;;;;;;;42.08;22.00;;;7.70;99.90;;;;;;5092948;28;20085;-88
2022/11/14 03:23:36;;;;;;;46.45;22.95;;;7.70;99.90;;;;;;5075536;28;20040;-88
2022/11/14 03:26:04;;;;;;;41.85;22.20;;;7.70;99.90;;;;;;5092430;28;20046;-88
2022/11/14 03:28:30;;;;;;;41.47;22.05;;;7.70;99.90;;;;;;5092772;28;20036;-88
2022/11/14 03:30:56;;;;;;;44.28;23.05;;;7.70;99.90;;;;;;5092061;28;20565;-88
2022/11/14 03:33:22;;;;;;;44.38;23.45;;;7.70;99.90;;;;;;5092110;28;20032;-88
2022/11/14 03:35:51;;;;;;;40.65;22.77;;;7.70;99.90;;;;;;5092487;28;20038;-88
2022/11/14 03:38:18;;;;;;;47.30;23.48;;;7.70;99.90;;;;;;5075453;28;20135;-88
2022/11/14 03:40:43;;;;;;;39.90;21.85;;;7.70;99.90;;;;;;5075415;28;20040;-88
2022/11/14 03:43:09;;;;;;;44.55;24.38;;;7.70;99.90;;;;;;5091830;28;20059;-88
2022/11/14 03:45:36;;;;;;;44.45;23.80;;;7.70;99.90;;;;;;5075109;28;20119;-88
2022/11/14 03:48:02;;;;;;;45.13;23.30;;;7.70;99.90;;;;;;5092064;28;20036;-88
2022/11/14 03:50:28;;;;;;;43.05;21.92;;;7.70;99.90;;;;;;5092062;28;20520;-88
2022/11/14 03:52:53;;;;;;;41.60;23.90;;;7.70;99.90;;;;;;5074911;28;20118;-89
2022/11/14 03:55:19;;;;;;;40.10;23.17;;;7.70;99.90;;;;;;5091901;28;20046;-89
2022/11/14 03:57:45;;;;;;;43.50;24.33;;;7.70;99.90;;;;;;5075019;28;20048;-89
2022/11/14 04:00:11;;;;;;;42.63;23.38;;;7.70;99.90;;;;;;5091785;28;20036;-89
2022/11/14 04:02:36;;;;;;;44.95;24.30;;;7.70;99.90;;;;;;5091739;28;20044;-89
2022/11/14 04:05:02;;;;;;;42.60;23.10;;;7.70;99.90;;;;;;5091114;28;20047;-89
2022/11/14 04:07:27;;;;;;;41.53;23.00;;;7.70;99.90;;;;;;5091928;28;20047;-89
2022/11/14 04:09:53;;;;;;;39.72;22.38;;;7.70;99.90;;;;;;5092052;28;20036;-89
2022/11/14 04:12:18;;;;;;;40.25;22.98;;;7.70;99.90;;;;;;5074187;28;20042;-89
2022/11/14 04:14:44;;;;;;;39.55;22.27;;;7.70;99.90;;;;;;5091510;28;20051;-88
2022/11/14 04:17:09;;;;;;;43.30;22.63;;;7.70;99.90;;;;;;5074550;28;20170;-88
2022/11/14 04:19:35;;;;;;;41.65;23.15;;;7.70;99.90;;;;;;5091708;28;20040;-88
2022/11/14 04:22:01;;;;;;;41.22;22.00;;;7.70;99.90;;;;;;5074240;28;20507;-88
2022/11/14 04:24:27;;;;;;;39.35;22.42;;;7.70;99.90;;;;;;5074236;28;20040;-89
2022/11/14 04:26:53;;;;;;;39.42;21.45;;;7.70;99.90;;;;;;5091368;28;20040;-89
2022/11/14 04:29:18;;;;;;;41.65;21.13;;;7.70;99.90;;;;;;5091385;28;20036;-88
2022/11/14 04:31:44;;;;;;;41.13;23.45;;;7.70;99.90;;;;;;5091111;28;20580;-88
2022/11/14 04:34:09;;;;;;;41.47;22.52;;;7.70;99.90;;;;;;5071783;28;20032;-88
2022/11/14 04:36:35;;;;;;;43.40;22.73;;;7.70;99.90;;;;;;5091189;28;20035;-89
2022/11/14 04:39:00;;;;;;;43.42;22.90;;;7.70;99.90;;;;;;5090580;28;20417;-88
2022/11/14 04:41:26;;;;;;;40.55;22.48;;;7.70;99.90;;;;;;5074136;28;20088;-89
2022/11/14 04:43:52;;;;;;;45.80;24.20;;;7.70;99.90;;;;;;5073763;28;20185;-88
2022/11/14 04:46:17;;;;;;;41.63;22.35;;;7.70;99.90;;;;;;5091019;28;20040;-88
2022/11/14 04:48:43;;;;;;;41.00;22.83;;;7.70;99.90;;;;;;5074107;28;20516;-89
2022/11/14 04:51:08;;;;;;;43.50;24.70;;;7.70;99.90;;;;;;5091057;28;20036;-88
2022/11/14 04:53:34;;;;;;;43.05;21.88;;;7.70;99.90;;;;;;5090746;28;20034;-88
2022/11/14 04:55:59;;;;;;;44.70;23.23;;;7.70;99.90;;;;;;5090997;28;20400;-88
2022/11/14 04:58:25;;;;;;;38.63;21.52;;;7.70;99.90;;;;;;5090679;28;20578;-88
2022/11/14 05:00:50;;;;;;;43.33;22.85;;;7.70;99.90;;;;;;5091983;28;20066;-88
2022/11/14 05:03:16;;;;;;;41.83;21.88;;;7.60;99.90;;;;;;5073597;28;20043;-89
2022/11/14 05:05:41;;;;;;;43.47;23.13;;;7.60;99.90;;;;;;5073490;28;20139;-89
2022/11/14 05:08:07;;;;;;;38.78;20.83;;;7.60;99.90;;;;;;5074051;28;20100;-88
2022/11/14 05:10:33;;;;;;;48.55;24.60;;;7.60;99.90;;;;;;5074040;28;20044;-88
2022/11/14 05:12:58;;;;;;;42.75;23.70;;;7.60;99.90;;;;;;5090237;28;20046;-89
2022/11/14 05:15:24;;;;;;;43.92;22.40;;;7.60;99.90;;;;;;5072914;28;20048;-89
2022/11/14 05:17:49;;;;;;;45.30;23.00;;;7.60;99.90;;;;;;5090644;28;20130;-89
2022/11/14 05:20:15;;;;;;;43.10;23.27;;;7.60;99.90;;;;;;5073596;28;20039;-89
2022/11/14 05:22:41;;;;;;;42.35;22.08;;;7.60;99.90;;;;;;5089927;28;20047;-88
2022/11/14 05:25:07;;;;;;;44.67;22.20;;;7.60;99.90;;;;;;5090574;28;20032;-89
2022/11/14 05:27:32;;;;;;;48.83;24.38;;;7.60;99.90;;;;;;5090106;28;20593;-89
2022/11/14 05:29:58;;;;;;;44.88;24.17;;;7.60;99.90;;;;;;5090431;28;20036;-88
2022/11/14 05:32:23;;;;;;;46.95;24.23;;;7.60;99.90;;;;;;5090247;28;20092;-88
2022/11/14 05:34:49;;;;;;;46.08;23.00;;;7.50;99.90;;;;;;5073420;28;20089;-88
2022/11/14 05:37:15;;;;;;;43.80;23.98;;;7.60;99.90;;;;;;5090298;28;20040;-89
2022/11/14 05:39:40;;;;;;;44.78;22.65;;;7.50;99.90;;;;;;5090411;28;20048;-89
2022/11/14 05:42:06;;;;;;;46.60;25.13;;;7.50;99.90;;;;;;5073276;28;20568;-88
2022/11/14 05:44:31;;;;;;;46.75;24.05;;;7.50;99.90;;;;;;5073261;28;20508;-89
2022/11/14 05:46:57;;;;;;;42.60;23.10;;;7.60;99.90;;;;;;5073388;28;20127;-89
2022/11/14 05:49:23;;;;;;;45.90;24.55;;;7.50;99.90;;;;;;5090060;28;20036;-88
2022/11/14 05:51:48;;;;;;;45.03;24.02;;;7.50;99.90;;;;;;5090413;28;20054;-88
2022/11/14 05:54:14;;;;;;;48.50;23.35;;;7.50;99.90;;;;;;5072817;28;20500;-88
2022/11/14 05:56:39;;;;;;;48.33;23.50;;;7.50;99.90;;;;;;5089906;28;20043;-89
2022/11/14 05:59:05;;;;;;;47.13;22.83;;;7.50;99.90;;;;;;5090134;28;20047;-88
2022/11/14 06:01:30;;;;;;;45.72;23.52;;;7.50;99.90;;;;;;5073125;28;20109;-88
2022/11/14 06:03:56;;;;;;;45.63;24.15;;;7.50;99.90;;;;;;5089714;28;20051;-89
2022/11/14 06:06:22;;;;;;;48.92;23.15;;;7.50;99.90;;;;;;5073012;28;20127;-89
2022/11/14 06:08:48;;;;;;;45.75;23.38;;;7.50;99.90;;;;;;5090400;28;20040;-88
2022/11/14 06:11:19;;;;;;;50.20;23.88;;;7.40;99.90;;;;;;5089665;28;20047;-88
2022/11/14 06:13:45;;;;;;;42.75;23.20;;;7.40;99.90;;;;;;5072506;28;20040;-89
2022/11/14 06:16:16;;;;;;;48.60;23.25;;;7.40;99.90;;;;;;5090141;28;20067;-88
2022/11/14 06:18:42;;;;;;;47.63;23.55;;;7.40;99.90;;;;;;5089750;28;20093;-89
2022/11/14 06:21:16;;;;;;;43.08;21.70;;;7.40;99.90;;;;;;5089533;28;20401;-89
2022/11/14 06:23:42;;;;;;;44.70;23.05;;;7.40;99.90;;;;;;5089229;28;20619;-89
2022/11/14 06:26:24;;;;;;;46.95;24.52;;;7.40;99.90;;;;;;5089987;28;20044;-89
2022/11/14 06:28:50;;;;;;;48.17;25.42;;;7.30;99.90;;;;;;5093912;28;20040;-89
2022/11/14 06:31:17;;;;;;;45.28;23.30;;;7.30;99.90;;;;;;5127568;27;20100;-89
2022/11/14 06:33:43;;;;;;;46.42;22.58;;;7.30;99.90;;;;;;5076405;28;20504;-88
2022/11/14 06:36:10;;;;;;;45.40;23.23;;;7.30;99.90;;;;;;5076461;28;20083;-88
2022/11/14 06:38:37;;;;;;;46.08;22.42;;;7.30;99.90;;;;;;5093428;28;20048;-89
2022/11/14 06:41:14;;;;;;;47.78;24.05;;;7.30;99.90;;;;;;5076532;28;20051;-89
2022/11/14 06:43:43;;;;;;;47.25;24.38;;;7.30;99.90;;;;;;5093030;28;20546;-89
2022/11/14 06:46:11;;;;;;;49.00;23.38;;;7.30;99.90;;;;;;5093268;28;20570;-89
2022/11/14 06:48:37;;;;;;;42.50;21.00;;;7.20;99.90;;;;;;5127202;27;20040;-89
2022/11/14 06:51:03;;;;;;;42.38;22.67;;;7.20;99.90;;;;;;5093434;28;20185;-89
2022/11/14 06:53:32;;;;;;;42.53;22.90;;;7.20;99.90;;;;;;5092871;28;20040;-88
2022/11/14 06:56:04;;;;;;;43.75;20.70;;;7.20;99.90;;;;;;5093086;28;20032;-89
2022/11/14 06:58:37;;;;;;;45.25;21.98;;;7.20;99.90;;;;;;5093406;28;20398;-88
2022/11/14 07:01:10;;;;;;;45.13;21.83;;;7.10;99.90;;;;;;5075853;28;20043;-88
2022/11/14 07:03:36;;;;;;;47.90;23.52;;;7.10;99.90;;;;;;5092301;28;20493;-88
2022/11/14 07:06:03;;;;;;;44.65;22.42;;;7.10;99.90;;;;;;5074591;28;20133;-88
2022/11/14 07:08:29;;;;;;;43.10;21.70;;;7.10;99.90;;;;;;5092477;28;20036;-88
2022/11/14 07:11:03;;;;;;;44.63;22.83;;;7.00;99.90;;;;;;5075804;28;20036;-88
2022/11/14 07:13:30;;;;;;;45.55;23.08;;;7.00;99.90;;;;;;5092468;28;20032;-89
2022/11/14 07:15:56;;;;;;;44.55;22.60;;;7.00;99.90;;;;;;5075935;28;20082;-89
2022/11/14 07:18:22;;;;;;;44.08;23.30;;;7.00;99.90;;;;;;5092962;28;20082;-89
2022/11/14 07:20:47;;;;;;;46.50;22.80;;;6.90;99.90;;;;;;5075172;28;20036;-89
2022/11/14 07:23:14;;;;;;;41.25;20.67;;;6.90;99.90;;;;;;5091859;28;20469;-89
2022/11/14 07:25:40;;;;;;;45.65;22.27;;;6.90;99.90;;;;;;5092351;28;20044;-89
2022/11/14 07:28:06;;;;;;;45.88;22.15;;;6.90;99.90;;;;;;5092826;28;20397;-88
2022/11/14 07:30:33;;;;;;;46.42;22.88;;;6.90;99.90;;;;;;5092288;28;20044;-89
2022/11/14 07:32:59;;;;;;;45.67;22.77;;;6.80;99.90;;;;;;5092460;28;20036;-89
2022/11/14 07:35:25;;;;;;;43.67;22.63;;;6.80;99.90;;;;;;5075787;28;20039;-89
2022/11/14 07:37:50;;;;;;;46.85;22.90;;;6.80;99.90;;;;;;5091690;28;20501;-89
2022/11/14 07:40:17;;;;;;;42.70;22.65;;;6.80;99.90;;;;;;5092137;28;20036;-89
2022/11/14 07:42:43;;;;;;;42.78;23.05;;;6.80;99.90;;;;;;5092113;28;20103;-89
2022/11/14 07:45:09;;;;;;;49.22;23.08;;;6.80;99.90;;;;;;5092183;28;20493;-89
2022/11/14 07:47:35;;;;;;;45.88;24.15;;;6.80;99.90;;;;;;5091821;28;20047;-89
2022/11/14 07:50:01;;;;;;;46.63;23.67;;;6.90;99.90;;;;;;5091856;28;20036;-89
2022/11/14 07:52:26;;;;;;;48.15;24.08;;;6.90;99.90;;;;;;5091729;28;20040;-89
2022/11/14 07:54:52;;;;;;;45.95;23.48;;;6.90;99.90;;;;;;5092170;28;20051;-89
2022/11/14 07:57:17;;;;;;;46.88;23.20;;;6.90;99.90;;;;;;5091882;28;20036;-89
2022/11/14 07:59:43;;;;;;;48.67;23.20;;;6.90;99.90;;;;;;5091616;28;20036;-89
2022/11/14 08:02:12;;;;;;;49.03;23.23;;;6.90;99.90;;;;;;5074936;28;20043;-89
2022/11/14 08:04:38;;;;;;;54.08;22.27;;;7.00;99.90;;;;;;5090653;28;20047;-89
2022/11/14 08:07:04;;;;;;;46.97;22.92;;;7.00;99.90;;;;;;5091840;28;20038;-89
2022/11/14 08:09:30;;;;;;;44.40;22.77;;;7.00;99.90;;;;;;5074750;28;20032;-89
2022/11/14 08:11:55;;;;;;;43.40;21.98;;;7.00;99.90;;;;;;5074352;28;20046;-90
2022/11/14 08:14:21;;;;;;;47.20;22.38;;;7.10;99.90;;;;;;5091166;28;20047;-90
2022/11/14 08:16:46;;;;;;;43.25;22.73;;;7.10;99.90;;;;;;5091845;28;20040;-89
2022/11/14 08:19:12;;;;;;;45.15;23.02;;;7.10;99.90;;;;;;5091580;28;20412;-89
2022/11/14 08:21:37;;;;;;;45.67;22.27;;;7.10;99.90;;;;;;5089328;28;20042;-88
2022/11/14 08:24:03;;;;;;;43.88;22.17;;;7.20;99.90;;;;;;5073103;28;20489;-89
2022/11/14 08:26:29;;;;;;;45.08;21.95;;;7.10;99.90;;;;;;5073671;28;20043;-88
2022/11/14 08:28:54;;;;;;;43.35;23.75;;;7.20;99.90;;;;;;5073593;28;20032;-89
2022/11/14 08:31:20;;;;;;;45.53;23.58;;;7.20;99.90;;;;;;5090838;28;20580;-89
2022/11/14 08:33:48;;;;;;;48.20;24.27;;;7.20;99.90;;;;;;5073253;28;20051;-89
2022/11/14 08:36:14;;;;;;;43.40;22.55;;;7.20;99.90;;;;;;5090882;28;20043;-89
2022/11/14 08:38:40;;;;;;;42.03;21.52;;;7.20;99.90;;;;;;5090604;28;20537;-89
2022/11/14 08:41:05;;;;;;;45.08;23.20;;;7.30;99.90;;;;;;5090512;28;20135;-89
2022/11/14 08:43:31;;;;;;;47.55;25.25;;;7.30;99.90;;;;;;5073295;28;20047;-89
2022/11/14 08:46:02;;;;;;;44.55;24.13;;;7.40;99.90;;;;;;5090080;28;20517;-89
2022/11/14 08:48:28;;;;;;;46.47;23.90;;;7.40;99.90;;;;;;5116156;27;20036;-89
2022/11/14 08:50:54;;;;;;;47.90;23.02;;;7.50;99.90;;;;;;5089992;28;20036;-89
2022/11/14 08:53:20;;;;;;;41.15;21.98;;;7.50;99.90;;;;;;5089562;28;20093;-89
2022/11/14 08:55:47;;;;;;;43.72;21.85;;;7.60;99.90;;;;;;5089727;28;20400;-89
2022/11/14 08:58:12;;;;;;;45.40;23.55;;;7.70;99.90;;;;;;5089931;28;20044;-89
2022/11/14 09:00:38;;;;;;;47.40;24.02;;;7.70;99.90;;;;;;5090001;28;20055;-89
2022/11/14 09:03:14;;;;;;;43.50;22.67;;;7.80;99.90;;;;;;5090000;28;20124;-89
2022/11/14 09:05:40;;;;;;;48.33;24.25;;;7.80;99.90;;;;;;5073375;28;20708;-89
2022/11/14 09:08:06;;;;;;;50.53;24.25;;;7.80;99.90;;;;;;5124200;27;20036;-89
2022/11/14 09:10:32;;;;;;;48.13;22.92;;;7.90;99.90;;;;;;5073357;28;20075;-89
2022/11/14 09:12:59;;;;;;;43.85;23.15;;;7.90;99.90;;;;;;5089611;28;20044;-88
2022/11/14 09:15:27;;;;;;;45.55;23.73;;;8.00;99.90;;;;;;5090289;28;20055;-89
2022/11/14 09:17:56;;;;;;;46.22;23.95;;;8.00;99.90;;;;;;5090257;28;20039;-90
2022/11/14 09:20:23;;;;;;;44.65;24.05;;;8.10;99.90;;;;;;5072614;28;20061;-89
2022/11/14 09:22:52;;;;;;;46.90;25.60;;;8.20;99.90;;;;;;5089759;28;20040;-89
2022/11/14 09:25:18;;;;;;;48.30;23.10;;;8.20;99.90;;;;;;5089895;28;20515;-89
2022/11/14 09:27:44;;;;;;;47.60;24.52;;;8.30;99.90;;;;;;5072965;28;20036;-89
2022/11/14 09:30:10;;;;;;;45.47;23.02;;;8.30;99.90;;;;;;5072837;28;20123;-89
2022/11/14 09:32:36;;;;;;;45.97;23.52;;;8.30;99.90;;;;;;5072356;28;20526;-89
2022/11/14 09:35:02;;;;;;;47.25;22.70;;;8.40;99.90;;;;;;5089776;28;20137;-89
2022/11/14 09:37:27;;;;;;;45.67;24.67;;;8.40;99.90;;;;;;5089744;28;20051;-88
2022/11/14 09:39:53;;;;;;;44.15;24.65;;;8.40;99.90;;;;;;5092552;28;20404;-89
2022/11/14 09:42:55;;;;;;;41.67;22.63;;;8.40;99.90;;;;;;5092639;28;20060;-88
2022/11/14 09:45:21;;;;;;;39.05;21.30;;;8.50;99.90;;;;;;5110259;28;20104;-88
2022/11/14 09:48:03;;;;;;;43.92;23.48;;;8.50;99.90;;;;;;5109823;28;20032;-89
2022/11/14 09:50:33;;;;;;;41.75;22.50;;;8.60;99.90;;;;;;5107604;28;20505;-89
2022/11/14 09:53:05;;;;;;;38.75;20.77;;;8.60;99.90;;;;;;5089939;28;20047;-89
2022/11/14 09:55:33;;;;;;;36.38;20.80;;;8.70;99.90;;;;;;5089400;28;20123;-88
2022/11/14 09:58:01;;;;;;;41.22;20.92;;;8.70;99.90;;;;;;5073001;28;20047;-89
2022/11/14 10:00:34;;;;;;;44.95;22.02;;;8.70;99.90;;;;;;5072469;28;20032;-89
2022/11/14 10:03:19;;;;;;;40.92;23.02;;;8.70;99.90;;;;;;5075868;28;20032;-89
2022/11/14 10:06:09;;;;;;;39.53;21.75;;;8.80;99.90;;;;;;5076044;28;20538;-90
2022/11/14 10:08:40;;;;;;;39.47;20.83;;;8.80;99.90;;;;;;5092142;28;20032;-89
2022/11/14 10:11:15;;;;;;;41.40;22.00;;;9.00;99.90;;;;;;5093966;28;20035;-89
2022/11/14 10:13:56;;;;;;;39.33;22.52;;;9.10;99.90;;;;;;5076812;28;20046;-89
2022/11/14 10:16:51;;;;;;;38.67;20.13;;;9.20;99.90;;;;;;5094012;28;20035;-89
2022/11/14 10:19:52;;;;;;;40.13;21.23;;;9.20;99.90;;;;;;5093835;28;20048;-89
2022/11/14 10:22:22;;;;;;;35.15;19.42;;;9.30;99.90;;;;;;5093434;28;20493;-89
2022/11/14 10:25:12;;;;;;;35.20;20.92;;;9.40;99.90;;;;;;5093747;28;20127;-89
2022/11/14 10:27:48;;;;;;;38.70;21.42;;;9.40;99.90;;;;;;5093600;28;20119;-89
2022/11/14 10:30:15;;;;;;;37.30;21.58;;;9.60;99.90;;;;;;5093621;28;20039;-89
2022/11/14 10:32:56;;;;;;;38.53;21.45;;;9.70;99.90;;;;;;5093329;28;20505;-89
2022/11/14 10:35:28;;;;;;;36.95;20.50;;;9.80;99.90;;;;;;5076568;28;20051;-89
2022/11/14 10:38:09;;;;;;;36.80;20.75;;;9.90;99.90;;;;;;5093408;28;20044;-89
2022/11/14 10:40:39;;;;;;;36.55;22.00;;;9.90;99.90;;;;;;5093578;28;20044;-89
2022/11/14 10:43:29;;;;;;;38.22;19.73;;;10.10;99.90;;;;;;5076455;28;20074;-89
2022/11/14 10:46:09;;;;;;;35.67;20.23;;;10.20;99.90;;;;;;5076463;28;20066;-89
2022/11/14 10:48:39;;;;;;;34.08;19.27;;;10.40;99.90;;;;;;5076481;28;20076;-89
2022/11/14 10:51:18;;;;;;;33.10;19.25;;;10.50;99.90;;;;;;5076664;28;20032;-89
2022/11/14 10:53:54;;;;;;;31.80;18.35;;;10.60;99.90;;;;;;5076063;28;20489;-89
2022/11/14 10:56:20;;;;;;;33.83;18.40;;;10.70;99.90;;;;;;5093082;28;20051;-89
2022/11/14 10:58:46;;;;;;;33.53;19.52;;;10.80;99.90;;;;;;5076076;28;20040;-89
2022/11/14 11:01:41;;;;;;;35.70;18.70;;;10.90;99.90;;;;;;5076165;28;20040;-89
2022/11/14 11:04:28;;;;;;;30.23;17.75;;;11.10;99.90;;;;;;5075839;28;20071;-90
2022/11/14 11:07:06;;;;;;;33.92;18.55;;;11.30;99.90;;;;;;5092820;28;20413;-89
2022/11/14 11:12:43;;;;;;;31.98;17.48;;;11.60;99.90;;;;;;5092057;28;20509;-90
2022/11/14 11:15:27;;;;;;;28.90;16.67;;;11.70;99.90;;;;;;5075423;28;20044;-90
2022/11/14 11:18:05;;;;;;;32.38;17.67;;;11.80;99.90;;;;;;5075654;28;20071;-90
2022/11/14 11:20:40;;;;;;;31.27;18.10;;;11.90;99.90;;;;;;5075996;28;20039;-90
2022/11/14 11:23:14;;;;;;;30.35;17.40;;;12.00;99.90;;;;;;5092280;28;20036;-90
2022/11/14 11:25:40;;;;;;;30.20;18.45;;;12.20;99.90;;;;;;5092465;28;20446;-90
2022/11/14 11:28:13;;;;;;;32.25;19.83;;;12.30;99.90;;;;;;5092340;28;20036;-90
2022/11/14 11:30:39;;;;;;;27.73;18.58;;;12.50;99.90;;;;;;5074442;28;20032;-90
2022/11/14 11:33:20;;;;;;;30.52;17.55;;;12.70;99.90;;;;;;5091393;28;20389;-90
2022/11/14 11:35:49;;;;;;;30.15;26.23;;;12.90;99.90;;;;;;5075102;28;20075;-90
2022/11/14 11:38:16;;;;;;;28.15;16.98;;;13.10;99.90;;;;;;5092287;28;20051;-90
2022/11/14 11:40:51;;;;;;;28.75;24.73;;;13.30;99.90;;;;;;5074698;28;20470;-90
2022/11/14 11:43:38;;;;;;;26.15;17.83;;;13.50;99.90;;;;;;5094354;28;20059;-89
2022/11/14 11:46:11;;;;;;;28.27;25.20;;;13.60;99.90;;;;;;5105790;28;20131;-90
2022/11/14 11:48:38;;;;;;;29.45;25.15;;;13.70;98.50;;;;;;5088968;28;20123;-89
2022/11/14 11:51:06;;;;;;;26.88;23.63;;;13.90;94.50;;;;;;5071755;28;20115;-90
2022/11/14 11:53:40;;;;;;;26.63;16.83;;;14.00;94.30;;;;;;5088626;28;20540;-90
2022/11/14 11:56:11;;;;;;;25.95;23.17;;;14.30;98.40;;;;;;5071883;28;20498;-88
2022/11/14 11:58:43;;;;;;;23.17;17.00;;;14.40;96.00;;;;;;5072158;28;20065;-87
2022/11/14 12:01:11;;;;;;;26.95;16.42;;;14.70;95.70;;;;;;5071835;28;20074;-88
2022/11/14 12:03:37;;;;;;;26.13;23.20;;;15.00;95.60;;;;;;5088141;28;20127;-88
2022/11/14 12:06:27;;;;;;;25.63;21.90;;;15.60;92.00;;;;;;5105194;28;20132;-88
2022/11/14 12:08:58;;;;;;;22.17;15.88;;;16.40;89.70;;;;;;5071501;28;20032;-88
2022/11/14 12:11:26;;;;;;;24.27;21.67;;;17.10;82.00;;;;;;5054737;28;20417;-88
2022/11/14 12:14:17;;;;;;;23.38;20.88;;;17.60;74.10;;;;;;5087830;28;20044;-88
2022/11/14 12:17:04;;;;;;;23.90;21.33;;;17.70;72.80;;;;;;5055053;28;20071;-88
2022/11/14 12:19:55;;;;;;;23.15;20.52;;;17.90;71.70;;;;;;5055085;28;20379;-88
2022/11/14 12:22:47;;;;;;;24.02;20.33;;;18.20;71.20;;;;;;5105179;27;20051;-88
2022/11/14 12:25:39;;;;;;;23.30;20.65;;;18.80;70.80;;;;;;5081899;28;20055;-89
2022/11/14 12:28:23;;;;;;;22.05;19.67;;;19.10;69.00;;;;;;5090597;28;20075;-89
2022/11/14 12:30:52;;;;;;;23.80;20.48;;;19.60;67.80;;;;;;5090306;28;20047;-89
2022/11/14 12:33:29;;;;;;;21.85;18.85;;;20.00;65.00;;;;;;5090597;28;20036;-89
2022/11/14 12:36:01;;;;;;;26.08;22.80;;;20.60;65.10;;;;;;5089602;28;20085;-88
2022/11/14 12:38:39;;;;;;;21.40;18.55;;;21.70;63.70;;;;;;5073681;28;20443;-90
2022/11/14 12:41:06;;;;;;;20.73;18.50;;;22.70;60.70;;;;;;5094083;28;20431;-89
2022/11/14 12:43:41;;;;;;;21.02;18.67;;;23.50;58.00;;;;;;5091691;28;20100;-89
2022/11/14 12:46:10;;;;;;;20.23;18.13;;;24.40;54.60;;;;;;5109518;28;20509;-89
2022/11/14 12:48:37;;;;;;;18.58;16.58;;;25.20;53.80;;;;;;5075387;28;20110;-90